createdAt,value
2019-01-17T00:00:38.842Z,1012.92
2019-01-17T00:01:19.470Z,1012.9
2019-01-17T00:02:00.064Z,1012.9
2019-01-17T00:02:40.668Z,1012.9
2019-01-17T00:03:21.286Z,1012.86
2019-01-17T00:04:01.939Z,1012.9
2019-01-17T00:04:42.542Z,1012.91
2019-01-17T00:05:23.154Z,1012.89
2019-01-17T00:06:03.757Z,1012.87
2019-01-17T00:06:44.354Z,1012.89
2019-01-17T00:07:24.954Z,1012.89
2019-01-17T00:08:05.542Z,1012.92
2019-01-17T00:08:46.170Z,1012.91
2019-01-17T00:09:26.806Z,1012.87
2019-01-17T00:10:07.428Z,1012.82
2019-01-17T00:10:48.056Z,1012.85
2019-01-17T00:11:28.677Z,1012.83
2019-01-17T00:12:09.288Z,1012.86
2019-01-17T00:12:49.955Z,1012.87
2019-01-17T00:13:30.557Z,1012.87
2019-01-17T00:14:11.176Z,1012.82
2019-01-17T00:14:51.790Z,1012.82
2019-01-17T00:15:32.406Z,1012.82
2019-01-17T00:16:13.044Z,1012.84
2019-01-17T00:16:53.652Z,1012.8
2019-01-17T00:17:34.264Z,1012.83
2019-01-17T00:18:14.867Z,1012.84
2019-01-17T00:18:55.470Z,1012.81
2019-01-17T00:19:36.090Z,1012.83
2019-01-17T00:20:16.728Z,1012.79
2019-01-17T00:20:57.332Z,1012.8
2019-01-17T00:21:37.958Z,1012.8
2019-01-17T00:22:18.564Z,1012.85
2019-01-17T00:22:59.163Z,1012.81
2019-01-17T00:23:39.784Z,1012.81
2019-01-17T00:24:20.384Z,1012.82
2019-01-17T00:25:01.032Z,1012.81
2019-01-17T00:25:41.708Z,1012.81
2019-01-17T00:26:22.306Z,1012.79
2019-01-17T00:27:02.913Z,1012.81
2019-01-17T00:27:43.573Z,1012.8
2019-01-17T00:28:24.178Z,1012.79
2019-01-17T00:29:06.104Z,1012.79
2019-01-17T00:29:45.442Z,1012.84
2019-01-17T00:30:26.048Z,1012.79
2019-01-17T00:31:06.674Z,1012.77
2019-01-17T00:31:47.299Z,1012.81
2019-01-17T00:32:27.936Z,1012.78
2019-01-17T00:33:08.612Z,1012.78
2019-01-17T00:33:49.219Z,1012.79
2019-01-17T00:34:29.816Z,1012.78
2019-01-17T00:35:10.430Z,1012.8
2019-01-17T00:35:51.053Z,1012.75
2019-01-17T00:36:31.658Z,1012.8
2019-01-17T00:37:12.290Z,1012.81
2019-01-17T00:37:52.914Z,1012.77
2019-01-17T00:38:33.516Z,1012.79
2019-01-17T00:39:14.176Z,1012.8
2019-01-17T00:39:54.834Z,1012.81
2019-01-17T00:40:35.448Z,1012.78
2019-01-17T00:41:16.083Z,1012.82
2019-01-17T00:41:56.784Z,1012.85
2019-01-17T00:42:37.395Z,1012.84
2019-01-17T00:43:18.563Z,1012.83
2019-01-17T00:43:58.630Z,1012.82
2019-01-17T00:44:39.240Z,1012.82
2019-01-17T00:45:19.906Z,1012.84
2019-01-17T00:46:00.532Z,1012.84
2019-01-17T00:46:41.206Z,1012.83
2019-01-17T00:47:22.026Z,1012.85
2019-01-17T00:48:02.642Z,1012.8
2019-01-17T00:48:43.258Z,1012.81
2019-01-17T00:49:23.914Z,1012.85
2019-01-17T00:50:04.509Z,1012.81
2019-01-17T00:50:45.164Z,1012.81
2019-01-17T00:51:25.793Z,1012.79
2019-01-17T00:52:06.399Z,1012.82
2019-01-17T00:52:47.020Z,1012.8
2019-01-17T00:53:27.644Z,1012.79
2019-01-17T00:54:09.114Z,1012.81
2019-01-17T00:54:48.860Z,1012.78
2019-01-17T00:55:29.458Z,1012.79
2019-01-17T00:56:10.096Z,1012.77
2019-01-17T00:56:50.708Z,1012.8
2019-01-17T00:57:31.320Z,1012.79
2019-01-17T00:58:12.074Z,1012.78
2019-01-17T00:58:52.852Z,1012.77
2019-01-17T00:59:33.470Z,1012.81
2019-01-17T01:00:14.072Z,1012.81
2019-01-17T01:00:54.686Z,1012.81
2019-01-17T01:01:35.290Z,1012.81
2019-01-17T01:02:15.894Z,1012.78
2019-01-17T01:02:56.512Z,1012.81
2019-01-17T01:03:37.122Z,1012.81
2019-01-17T01:04:17.767Z,1012.8
2019-01-17T01:04:58.359Z,1012.8
2019-01-17T01:05:38.978Z,1012.81
2019-01-17T01:06:19.640Z,1012.82
2019-01-17T01:07:00.254Z,1012.76
2019-01-17T01:07:40.858Z,1012.78
2019-01-17T01:08:21.452Z,1012.76
2019-01-17T01:09:02.065Z,1012.76
2019-01-17T01:09:42.668Z,1012.76
2019-01-17T01:12:02.800Z,1012.74
2019-01-17T01:12:43.408Z,1012.75
2019-01-17T01:13:24.004Z,1012.71
2019-01-17T01:14:04.608Z,1012.7
2019-01-17T01:14:45.218Z,1012.71
2019-01-17T01:15:25.826Z,1012.71
2019-01-17T01:16:06.430Z,1012.66
2019-01-17T01:16:47.022Z,1012.65
2019-01-17T01:17:27.794Z,1012.69
2019-01-17T01:18:08.400Z,1012.66
2019-01-17T01:18:49.043Z,1012.63
2019-01-17T01:19:29.664Z,1012.64
2019-01-17T01:20:10.282Z,1012.65
2019-01-17T01:20:50.880Z,1012.66
2019-01-17T01:21:31.480Z,1012.63
2019-01-17T01:22:12.088Z,1012.64
2019-01-17T01:22:52.710Z,1012.63
2019-01-17T01:23:33.358Z,1012.65
2019-01-17T01:24:15.479Z,1012.59
2019-01-17T01:24:54.556Z,1012.64
2019-01-17T01:25:35.159Z,1012.59
2019-01-17T01:26:15.800Z,1012.63
2019-01-17T01:26:56.410Z,1012.63
2019-01-17T01:27:37.010Z,1012.61
2019-01-17T01:28:17.616Z,1012.61
2019-01-17T01:28:58.218Z,1012.59
2019-01-17T01:29:38.832Z,1012.61
2019-01-17T01:30:19.439Z,1012.62
2019-01-17T01:31:00.053Z,1012.57
2019-01-17T01:31:40.676Z,1012.59
2019-01-17T01:32:21.266Z,1012.6
2019-01-17T01:33:01.878Z,1012.59
2019-01-17T01:33:42.483Z,1012.57
2019-01-17T01:34:23.132Z,1012.6
2019-01-17T01:35:03.888Z,1012.6
2019-01-17T01:35:44.506Z,1012.56
2019-01-17T01:36:25.112Z,1012.57
2019-01-17T01:37:05.709Z,1012.57
2019-01-17T01:37:46.313Z,1012.55
2019-01-17T01:38:26.912Z,1012.55
2019-01-17T01:39:07.518Z,1012.52
2019-01-17T01:39:48.126Z,1012.53
2019-01-17T01:40:28.732Z,1012.55
2019-01-17T01:41:09.347Z,1012.57
2019-01-17T01:41:49.978Z,1012.53
2019-01-17T01:42:30.586Z,1012.53
2019-01-17T01:43:11.193Z,1012.57
2019-01-17T01:43:51.802Z,1012.6
2019-01-17T01:44:32.432Z,1012.56
2019-01-17T01:45:13.044Z,1012.58
2019-01-17T01:45:53.648Z,1012.58
2019-01-17T01:46:34.246Z,1012.56
2019-01-17T01:47:14.856Z,1012.59
2019-01-17T01:47:55.505Z,1012.59
2019-01-17T01:48:36.105Z,1012.63
2019-01-17T01:49:16.733Z,1012.61
2019-01-17T01:49:57.330Z,1012.62
2019-01-17T01:50:37.935Z,1012.63
2019-01-17T01:51:18.538Z,1012.63
2019-01-17T01:51:59.152Z,1012.65
2019-01-17T01:52:39.754Z,1012.63
2019-01-17T01:53:20.397Z,1012.69
2019-01-17T01:54:01.007Z,1012.67
2019-01-17T01:54:41.620Z,1012.63
2019-01-17T01:55:22.244Z,1012.62
2019-01-17T01:56:02.849Z,1012.64
2019-01-17T01:56:43.454Z,1012.65
2019-01-17T01:57:24.096Z,1012.66
2019-01-17T01:58:04.692Z,1012.71
2019-01-17T01:58:45.302Z,1012.69
2019-01-17T01:59:25.941Z,1012.67
2019-01-17T02:00:06.550Z,1012.71
2019-01-17T02:00:47.150Z,1012.71
2019-01-17T02:01:27.746Z,1012.75
2019-01-17T02:02:08.398Z,1012.72
2019-01-17T02:02:49.001Z,1012.77
2019-01-17T02:03:29.624Z,1012.76
2019-01-17T02:04:10.230Z,1012.77
2019-01-17T02:04:50.857Z,1012.76
2019-01-17T02:05:31.464Z,1012.76
2019-01-17T02:06:12.073Z,1012.75
2019-01-17T02:06:52.669Z,1012.77
2019-01-17T02:07:33.309Z,1012.79
2019-01-17T02:08:13.922Z,1012.76
2019-01-17T02:08:54.525Z,1012.75
2019-01-17T02:09:35.125Z,1012.78
2019-01-17T02:10:15.728Z,1012.76
2019-01-17T02:10:56.339Z,1012.78
2019-01-17T02:11:36.951Z,1012.76
2019-01-17T02:12:17.595Z,1012.76
2019-01-17T02:12:58.205Z,1012.79
2019-01-17T02:13:38.825Z,1012.8
2019-01-17T02:14:19.431Z,1012.79
2019-01-17T02:15:00.027Z,1012.82
2019-01-17T02:15:40.701Z,1012.81
2019-01-17T02:16:21.318Z,1012.85
2019-01-17T02:17:01.907Z,1012.82
2019-01-17T02:17:42.526Z,1012.82
2019-01-17T02:18:23.123Z,1012.84
2019-01-17T02:19:03.740Z,1012.82
2019-01-17T02:19:44.351Z,1012.84
2019-01-17T02:20:24.972Z,1012.81
2019-01-17T02:21:05.579Z,1012.8
2019-01-17T02:21:46.194Z,1012.79
2019-01-17T02:22:26.820Z,1012.83
2019-01-17T02:23:07.429Z,1012.8
2019-01-17T02:23:48.029Z,1012.83
2019-01-17T02:24:28.760Z,1012.81
2019-01-17T02:25:09.243Z,1012.79
2019-01-17T02:25:49.857Z,1012.83
2019-01-17T02:26:30.459Z,1012.81
2019-01-17T02:27:11.068Z,1012.82
2019-01-17T02:27:51.677Z,1012.81
2019-01-17T02:28:32.279Z,1012.79
2019-01-17T02:29:12.893Z,1012.81
2019-01-17T02:29:53.502Z,1012.84
2019-01-17T02:30:34.124Z,1012.82
2019-01-17T02:31:14.744Z,1012.83
2019-01-17T02:31:55.362Z,1012.82
2019-01-17T02:32:35.967Z,1012.84
2019-01-17T02:33:16.559Z,1012.8
2019-01-17T02:33:57.159Z,1012.81
2019-01-17T02:34:37.763Z,1012.79
2019-01-17T02:35:18.424Z,1012.78
2019-01-17T02:35:59.008Z,1012.77
2019-01-17T02:36:39.602Z,1012.8
2019-01-17T02:37:20.238Z,1012.76
2019-01-17T02:38:00.859Z,1012.76
2019-01-17T02:38:41.469Z,1012.78
2019-01-17T02:39:22.070Z,1012.71
2019-01-17T02:40:02.672Z,1012.74
2019-01-17T02:40:43.273Z,1012.76
2019-01-17T02:41:23.881Z,1012.76
2019-01-17T02:42:04.481Z,1012.72
2019-01-17T02:42:45.089Z,1012.73
2019-01-17T02:43:25.689Z,1012.73
2019-01-17T02:44:06.328Z,1012.74
2019-01-17T02:44:46.949Z,1012.73
2019-01-17T02:45:27.571Z,1012.74
2019-01-17T02:46:08.178Z,1012.71
2019-01-17T02:46:48.775Z,1012.72
2019-01-17T02:47:29.374Z,1012.71
2019-01-17T02:48:09.975Z,1012.72
2019-01-17T02:48:50.592Z,1012.71
2019-01-17T02:49:31.205Z,1012.71
2019-01-17T02:50:11.823Z,1012.68
2019-01-17T02:50:52.418Z,1012.71
2019-01-17T02:51:33.005Z,1012.7
2019-01-17T02:52:13.606Z,1012.67
2019-01-17T02:52:54.203Z,1012.63
2019-01-17T02:53:34.811Z,1012.65
2019-01-17T02:54:15.428Z,1012.69
2019-01-17T02:54:56.067Z,1012.67
2019-01-17T02:55:36.662Z,1012.63
2019-01-17T02:56:17.271Z,1012.67
2019-01-17T02:56:57.884Z,1012.64
2019-01-17T02:57:38.496Z,1012.64
2019-01-17T02:58:19.097Z,1012.67
2019-01-17T02:58:59.744Z,1012.66
2019-01-17T02:59:40.372Z,1012.66
2019-01-17T03:00:20.986Z,1012.65
2019-01-17T03:01:01.595Z,1012.64
2019-01-17T03:01:42.235Z,1012.62
2019-01-17T03:02:22.846Z,1012.67
2019-01-17T03:03:03.455Z,1012.62
2019-01-17T03:03:44.061Z,1012.62
2019-01-17T03:04:24.669Z,1012.64
2019-01-17T03:05:05.309Z,1012.66
2019-01-17T03:05:45.915Z,1012.64
2019-01-17T03:06:26.517Z,1012.62
2019-01-17T03:07:07.116Z,1012.64
2019-01-17T03:07:47.738Z,1012.66
2019-01-17T03:08:28.365Z,1012.66
2019-01-17T03:09:08.965Z,1012.62
2019-01-17T03:09:49.587Z,1012.65
2019-01-17T03:10:30.226Z,1012.63
2019-01-17T03:11:10.829Z,1012.63
2019-01-17T03:11:51.423Z,1012.66
2019-01-17T03:12:32.027Z,1012.63
2019-01-17T03:13:12.632Z,1012.62
2019-01-17T03:13:53.239Z,1012.66
2019-01-17T03:14:33.861Z,1012.64
2019-01-17T03:15:14.483Z,1012.64
2019-01-17T03:15:55.081Z,1012.64
2019-01-17T03:16:35.737Z,1012.64
2019-01-17T03:17:16.359Z,1012.67
2019-01-17T03:17:56.959Z,1012.6
2019-01-17T03:18:37.555Z,1012.62
2019-01-17T03:19:18.163Z,1012.61
2019-01-17T03:19:58.759Z,1012.62
2019-01-17T03:20:39.366Z,1012.56
2019-01-17T03:21:19.949Z,1012.6
2019-01-17T03:22:00.553Z,1012.57
2019-01-17T03:22:41.149Z,1012.56
2019-01-17T03:23:21.759Z,1012.57
2019-01-17T03:24:02.403Z,1012.6
2019-01-17T03:24:43.256Z,1012.57
2019-01-17T03:25:23.638Z,1012.53
2019-01-17T03:26:04.241Z,1012.56
2019-01-17T03:26:44.850Z,1012.56
2019-01-17T03:27:25.437Z,1012.55
2019-01-17T03:28:06.041Z,1012.54
2019-01-17T03:28:46.631Z,1012.55
2019-01-17T03:29:27.229Z,1012.53
2019-01-17T03:30:07.833Z,1012.54
2019-01-17T03:30:48.464Z,1012.53
2019-01-17T03:31:29.084Z,1012.55
2019-01-17T03:32:09.709Z,1012.54
2019-01-17T03:32:50.339Z,1012.55
2019-01-17T03:33:30.934Z,1012.56
2019-01-17T03:34:11.571Z,1012.57
2019-01-17T03:34:52.226Z,1012.57
2019-01-17T03:35:32.806Z,1012.51
2019-01-17T03:36:13.407Z,1012.54
2019-01-17T03:36:54.001Z,1012.55
2019-01-17T03:37:34.637Z,1012.56
2019-01-17T03:38:15.260Z,1012.57
2019-01-17T03:38:55.873Z,1012.52
2019-01-17T03:39:36.475Z,1012.57
2019-01-17T03:40:17.095Z,1012.55
2019-01-17T03:40:57.711Z,1012.56
2019-01-17T03:41:38.317Z,1012.53
2019-01-17T03:42:18.923Z,1012.54
2019-01-17T03:42:59.539Z,1012.56
2019-01-17T03:43:40.163Z,1012.52
2019-01-17T03:44:20.782Z,1012.54
2019-01-17T03:45:01.392Z,1012.53
2019-01-17T03:45:42.007Z,1012.53
2019-01-17T03:46:22.623Z,1012.52
2019-01-17T03:47:03.233Z,1012.5
2019-01-17T03:47:43.867Z,1012.53
2019-01-17T03:48:24.481Z,1012.52
2019-01-17T03:49:05.086Z,1012.49
2019-01-17T03:49:45.690Z,1012.46
2019-01-17T03:50:26.319Z,1012.49
2019-01-17T03:51:06.945Z,1012.5
2019-01-17T03:51:47.551Z,1012.43
2019-01-17T03:52:28.154Z,1012.44
2019-01-17T03:53:08.762Z,1012.48
2019-01-17T03:53:49.357Z,1012.51
2019-01-17T03:54:29.965Z,1012.46
2019-01-17T03:55:10.567Z,1012.49
2019-01-17T03:55:51.175Z,1012.45
2019-01-17T03:56:31.774Z,1012.46
2019-01-17T03:57:12.383Z,1012.46
2019-01-17T03:57:52.987Z,1012.48
2019-01-17T03:58:33.588Z,1012.48
2019-01-17T03:59:14.179Z,1012.46
2019-01-17T03:59:54.777Z,1012.42
2019-01-17T04:00:35.397Z,1012.44
2019-01-17T04:01:16.023Z,1012.47
2019-01-17T04:01:56.683Z,1012.43
2019-01-17T04:02:37.331Z,1012.45
2019-01-17T04:03:17.941Z,1012.39
2019-01-17T04:03:58.541Z,1012.41
2019-01-17T04:04:39.145Z,1012.43
2019-01-17T04:05:19.763Z,1012.4
2019-01-17T04:06:00.343Z,1012.37
2019-01-17T04:06:40.949Z,1012.4
2019-01-17T04:07:21.567Z,1012.4
2019-01-17T04:08:02.200Z,1012.42
2019-01-17T04:08:42.805Z,1012.41
2019-01-17T04:09:23.409Z,1012.42
2019-01-17T04:10:04.011Z,1012.36
2019-01-17T04:10:44.600Z,1012.39
2019-01-17T04:11:25.215Z,1012.39
2019-01-17T04:12:05.823Z,1012.41
2019-01-17T04:12:46.481Z,1012.39
2019-01-17T04:13:27.049Z,1012.4
2019-01-17T04:14:07.661Z,1012.39
2019-01-17T04:14:48.275Z,1012.44
2019-01-17T04:15:28.889Z,1012.4
2019-01-17T04:16:09.489Z,1012.39
2019-01-17T04:16:50.100Z,1012.41
2019-01-17T04:17:30.701Z,1012.38
2019-01-17T04:18:11.305Z,1012.38
2019-01-17T04:18:51.971Z,1012.38
2019-01-17T04:19:32.590Z,1012.4
2019-01-17T04:20:13.184Z,1012.42
2019-01-17T04:20:53.845Z,1012.34
2019-01-17T04:21:34.461Z,1012.39
2019-01-17T04:22:15.067Z,1012.41
2019-01-17T04:22:55.707Z,1012.38
2019-01-17T04:23:36.314Z,1012.39
2019-01-17T04:24:16.933Z,1012.39
2019-01-17T04:24:57.569Z,1012.39
2019-01-17T04:25:38.172Z,1012.36
2019-01-17T04:26:18.765Z,1012.39
2019-01-17T04:26:59.371Z,1012.38
2019-01-17T04:27:39.982Z,1012.41
2019-01-17T04:28:20.577Z,1012.36
2019-01-17T04:29:01.181Z,1012.4
2019-01-17T04:29:41.848Z,1012.37
2019-01-17T04:30:22.435Z,1012.37
2019-01-17T04:31:03.035Z,1012.37
2019-01-17T04:31:43.637Z,1012.34
2019-01-17T04:32:24.237Z,1012.37
2019-01-17T04:33:04.850Z,1012.35
2019-01-17T04:33:45.451Z,1012.37
2019-01-17T04:34:26.064Z,1012.35
2019-01-17T04:35:06.687Z,1012.36
2019-01-17T04:35:47.285Z,1012.33
2019-01-17T04:36:27.902Z,1012.35
2019-01-17T04:37:08.513Z,1012.38
2019-01-17T04:37:49.143Z,1012.35
2019-01-17T04:38:29.747Z,1012.38
2019-01-17T04:39:10.343Z,1012.34
2019-01-17T04:39:50.960Z,1012.33
2019-01-17T04:40:31.577Z,1012.35
2019-01-17T04:41:12.183Z,1012.32
2019-01-17T04:41:52.796Z,1012.33
2019-01-17T04:42:33.430Z,1012.34
2019-01-17T04:43:14.041Z,1012.33
2019-01-17T04:43:54.625Z,1012.29
2019-01-17T04:44:35.231Z,1012.31
2019-01-17T04:45:15.825Z,1012.3
2019-01-17T04:45:56.452Z,1012.27
2019-01-17T04:46:37.066Z,1012.3
2019-01-17T04:47:17.673Z,1012.28
2019-01-17T04:47:58.290Z,1012.26
2019-01-17T04:48:38.917Z,1012.29
2019-01-17T04:49:19.537Z,1012.26
2019-01-17T04:50:00.145Z,1012.29
2019-01-17T04:50:40.764Z,1012.3
2019-01-17T04:51:21.386Z,1012.34
2019-01-17T04:52:01.987Z,1012.36
2019-01-17T04:52:42.590Z,1012.31
2019-01-17T04:53:23.200Z,1012.31
2019-01-17T04:54:03.843Z,1012.36
2019-01-17T04:54:44.455Z,1012.33
2019-01-17T04:55:25.059Z,1012.33
2019-01-17T04:56:05.655Z,1012.33
2019-01-17T04:56:46.249Z,1012.33
2019-01-17T04:57:26.856Z,1012.36
2019-01-17T04:58:07.483Z,1012.38
2019-01-17T04:58:48.097Z,1012.36
2019-01-17T04:59:28.735Z,1012.39
2019-01-17T05:00:09.343Z,1012.38
2019-01-17T05:00:49.948Z,1012.35
2019-01-17T05:01:30.557Z,1012.37
2019-01-17T05:02:11.169Z,1012.34
2019-01-17T05:02:51.761Z,1012.32
2019-01-17T05:03:32.365Z,1012.33
2019-01-17T05:04:12.971Z,1012.35
2019-01-17T05:04:53.589Z,1012.32
2019-01-17T05:05:34.213Z,1012.33
2019-01-17T05:06:14.831Z,1012.31
2019-01-17T05:06:55.448Z,1012.3
2019-01-17T05:07:36.057Z,1012.3
2019-01-17T05:08:16.673Z,1012.27
2019-01-17T05:08:57.310Z,1012.26
2019-01-17T05:09:37.904Z,1012.28
2019-01-17T05:10:18.529Z,1012.27
2019-01-17T05:10:59.137Z,1012.27
2019-01-17T05:11:39.769Z,1012.28
2019-01-17T05:12:20.407Z,1012.27
2019-01-17T05:13:01.019Z,1012.3
2019-01-17T05:13:41.631Z,1012.26
2019-01-17T05:14:22.241Z,1012.28
2019-01-17T05:15:02.847Z,1012.25
2019-01-17T05:15:43.487Z,1012.29
2019-01-17T05:16:24.109Z,1012.3
2019-01-17T05:17:04.731Z,1012.27
2019-01-17T05:17:45.341Z,1012.29
2019-01-17T05:18:25.961Z,1012.26
2019-01-17T05:19:06.561Z,1012.3
2019-01-17T05:19:47.153Z,1012.28
2019-01-17T05:20:27.791Z,1012.27
2019-01-17T05:21:08.390Z,1012.31
2019-01-17T05:21:49.009Z,1012.32
2019-01-17T05:22:29.610Z,1012.31
2019-01-17T05:23:10.238Z,1012.3
2019-01-17T05:23:50.838Z,1012.3
2019-01-17T05:24:31.429Z,1012.31
2019-01-17T05:25:12.567Z,1012.33
2019-01-17T05:25:52.654Z,1012.3
2019-01-17T05:26:33.283Z,1012.3
2019-01-17T05:27:13.890Z,1012.34
2019-01-17T05:27:54.489Z,1012.3
2019-01-17T05:28:35.093Z,1012.35
2019-01-17T05:29:15.771Z,1012.32
2019-01-17T05:29:56.391Z,1012.32
2019-01-17T05:30:36.999Z,1012.33
2019-01-17T05:31:17.607Z,1012.32
2019-01-17T05:31:58.219Z,1012.39
2019-01-17T05:32:38.857Z,1012.39
2019-01-17T05:33:19.477Z,1012.37
2019-01-17T05:34:00.103Z,1012.37
2019-01-17T05:34:40.726Z,1012.35
2019-01-17T05:35:21.342Z,1012.41
2019-01-17T05:36:01.952Z,1012.39
2019-01-17T05:36:42.559Z,1012.37
2019-01-17T05:37:23.179Z,1012.37
2019-01-17T05:38:03.789Z,1012.39
2019-01-17T05:38:44.389Z,1012.38
2019-01-17T05:39:24.977Z,1012.38
2019-01-17T05:40:05.605Z,1012.4
2019-01-17T05:40:46.237Z,1012.4
2019-01-17T05:41:26.847Z,1012.4
2019-01-17T05:42:07.463Z,1012.38
2019-01-17T05:42:48.083Z,1012.37
2019-01-17T05:43:28.705Z,1012.38
2019-01-17T05:44:09.303Z,1012.39
2019-01-17T05:44:49.907Z,1012.36
2019-01-17T05:45:30.523Z,1012.37
2019-01-17T05:46:11.131Z,1012.39
2019-01-17T05:46:51.741Z,1012.37
2019-01-17T05:47:32.355Z,1012.38
2019-01-17T05:48:12.971Z,1012.34
2019-01-17T05:48:53.591Z,1012.36
2019-01-17T05:49:34.207Z,1012.36
2019-01-17T05:50:14.823Z,1012.36
2019-01-17T05:50:55.435Z,1012.39
2019-01-17T05:51:36.057Z,1012.39
2019-01-17T05:52:16.739Z,1012.39
2019-01-17T05:52:57.561Z,1012.36
2019-01-17T05:53:38.207Z,1012.38
2019-01-17T05:54:18.950Z,1012.39
2019-01-17T05:54:59.550Z,1012.37
2019-01-17T05:55:40.148Z,1012.38
2019-01-17T05:56:20.845Z,1012.37
2019-01-17T05:57:01.461Z,1012.36
2019-01-17T05:57:42.057Z,1012.39
2019-01-17T05:58:22.701Z,1012.39
2019-01-17T05:59:03.507Z,1012.38
2019-01-17T05:59:44.165Z,1012.39
2019-01-17T06:00:24.770Z,1012.41
2019-01-17T06:01:05.426Z,1012.42
2019-01-17T06:01:46.027Z,1012.46
2019-01-17T06:02:26.647Z,1012.45
2019-01-17T06:03:07.274Z,1012.44
2019-01-17T06:03:47.882Z,1012.43
2019-01-17T06:04:28.477Z,1012.42
2019-01-17T06:05:09.097Z,1012.45
2019-01-17T06:05:49.701Z,1012.44
2019-01-17T06:06:33.109Z,1012.42
2019-01-17T06:07:10.945Z,1012.4
2019-01-17T06:07:51.583Z,1012.43
2019-01-17T06:08:32.207Z,1012.44
2019-01-17T06:09:12.849Z,1012.43
2019-01-17T06:09:53.457Z,1012.42
2019-01-17T06:10:34.049Z,1012.45
2019-01-17T06:11:14.645Z,1012.43
2019-01-17T06:11:55.265Z,1012.48
2019-01-17T06:12:35.879Z,1012.47
2019-01-17T06:13:16.477Z,1012.46
2019-01-17T06:13:57.089Z,1012.47
2019-01-17T06:14:37.717Z,1012.5
2019-01-17T06:15:18.331Z,1012.46
2019-01-17T06:15:58.939Z,1012.49
2019-01-17T06:16:39.540Z,1012.49
2019-01-17T06:17:20.157Z,1012.52
2019-01-17T06:18:00.805Z,1012.52
2019-01-17T06:18:41.427Z,1012.53
2019-01-17T06:19:22.053Z,1012.51
2019-01-17T06:20:02.669Z,1012.51
2019-01-17T06:20:43.279Z,1012.54
2019-01-17T06:21:23.897Z,1012.53
2019-01-17T06:22:04.509Z,1012.52
2019-01-17T06:22:45.127Z,1012.54
2019-01-17T06:23:25.729Z,1012.57
2019-01-17T06:24:06.369Z,1012.54
2019-01-17T06:24:46.957Z,1012.55
2019-01-17T06:25:28.071Z,1012.59
2019-01-17T06:26:08.181Z,1012.53
2019-01-17T06:26:48.789Z,1012.56
2019-01-17T06:27:29.393Z,1012.59
2019-01-17T06:28:10.006Z,1012.53
2019-01-17T06:28:50.621Z,1012.59
2019-01-17T06:29:31.214Z,1012.62
2019-01-17T06:30:11.846Z,1012.58
2019-01-17T06:30:52.453Z,1012.59
2019-01-17T06:31:33.075Z,1012.63
2019-01-17T06:32:13.689Z,1012.6
2019-01-17T06:32:54.295Z,1012.61
2019-01-17T06:33:34.975Z,1012.64
2019-01-17T06:34:15.583Z,1012.65
2019-01-17T06:34:56.179Z,1012.64
2019-01-17T06:35:36.792Z,1012.66
2019-01-17T06:36:17.391Z,1012.66
2019-01-17T06:36:57.997Z,1012.64
2019-01-17T06:37:38.606Z,1012.67
2019-01-17T06:38:19.211Z,1012.68
2019-01-17T06:38:59.801Z,1012.65
2019-01-17T06:39:40.659Z,1012.63
2019-01-17T06:40:21.270Z,1012.68
2019-01-17T06:41:01.940Z,1012.69
2019-01-17T06:41:42.700Z,1012.66
2019-01-17T06:42:23.305Z,1012.66
2019-01-17T06:43:03.916Z,1012.68
2019-01-17T06:43:44.528Z,1012.66
2019-01-17T06:44:25.146Z,1012.69
2019-01-17T06:45:05.760Z,1012.66
2019-01-17T06:45:46.384Z,1012.65
2019-01-17T06:46:26.997Z,1012.65
2019-01-17T06:47:07.634Z,1012.67
2019-01-17T06:47:48.247Z,1012.66
2019-01-17T06:48:28.882Z,1012.68
2019-01-17T06:49:09.515Z,1012.68
2019-01-17T06:49:50.148Z,1012.68
2019-01-17T06:50:30.798Z,1012.66
2019-01-17T06:51:11.451Z,1012.68
2019-01-17T06:51:52.097Z,1012.67
2019-01-17T06:52:32.723Z,1012.71
2019-01-17T06:53:13.327Z,1012.71
2019-01-17T06:53:54.027Z,1012.7
2019-01-17T06:54:34.689Z,1012.73
2019-01-17T06:55:15.305Z,1012.73
2019-01-17T06:55:55.975Z,1012.72
2019-01-17T06:56:36.616Z,1012.75
2019-01-17T06:57:17.264Z,1012.74
2019-01-17T06:57:58.128Z,1012.75
2019-01-17T06:58:38.719Z,1012.7
2019-01-17T06:59:19.353Z,1012.73
2019-01-17T06:59:59.974Z,1012.71
2019-01-17T07:00:40.610Z,1012.74
2019-01-17T07:01:21.397Z,1012.75
2019-01-17T07:02:01.978Z,1012.76
2019-01-17T07:02:42.626Z,1012.76
2019-01-17T07:03:23.257Z,1012.78
2019-01-17T07:04:03.977Z,1012.78
2019-01-17T07:04:44.580Z,1012.78
2019-01-17T07:05:25.196Z,1012.82
2019-01-17T07:06:05.803Z,1012.83
2019-01-17T07:06:46.389Z,1012.83
2019-01-17T07:07:27.051Z,1012.82
2019-01-17T07:08:07.795Z,1012.81
2019-01-17T07:08:48.505Z,1012.81
2019-01-17T07:09:29.107Z,1012.82
2019-01-17T07:10:09.713Z,1012.86
2019-01-17T07:10:50.311Z,1012.87
2019-01-17T07:11:30.912Z,1012.88
2019-01-17T07:12:11.673Z,1012.87
2019-01-17T07:12:52.272Z,1012.85
2019-01-17T07:13:32.887Z,1012.89
2019-01-17T07:14:13.662Z,1012.88
2019-01-17T07:14:54.266Z,1012.94
2019-01-17T07:15:34.907Z,1012.92
2019-01-17T07:16:15.509Z,1012.95
2019-01-17T07:16:56.139Z,1012.92
2019-01-17T07:17:36.805Z,1012.99
2019-01-17T07:18:17.440Z,1012.97
2019-01-17T07:18:58.085Z,1012.97
2019-01-17T07:19:38.690Z,1012.94
2019-01-17T07:20:19.424Z,1012.94
2019-01-17T07:21:00.048Z,1012.96
2019-01-17T07:21:40.718Z,1012.94
2019-01-17T07:22:21.370Z,1012.95
2019-01-17T07:23:02.052Z,1012.94
2019-01-17T07:23:42.719Z,1012.95
2019-01-17T07:24:23.323Z,1012.94
2019-01-17T07:25:03.990Z,1012.95
2019-01-17T07:25:44.759Z,1012.94
2019-01-17T07:26:25.465Z,1012.91
2019-01-17T07:27:06.080Z,1012.92
2019-01-17T07:27:46.639Z,1012.95
2019-01-17T07:28:27.257Z,1012.92
2019-01-17T07:29:07.869Z,1012.95
2019-01-17T07:29:48.481Z,1012.99
2019-01-17T07:30:29.326Z,1013
2019-01-17T07:31:09.768Z,1012.95
2019-01-17T07:31:50.434Z,1012.95
2019-01-17T07:32:31.080Z,1012.96
2019-01-17T07:33:11.715Z,1012.98
2019-01-17T07:33:52.308Z,1012.97
2019-01-17T07:34:32.975Z,1012.97
2019-01-17T07:35:13.623Z,1012.98
2019-01-17T07:35:54.278Z,1012.98
2019-01-17T07:36:34.942Z,1012.95
2019-01-17T07:37:15.504Z,1012.96
2019-01-17T07:37:56.120Z,1012.95
2019-01-17T07:38:36.730Z,1013
2019-01-17T07:39:17.353Z,1012.96
2019-01-17T07:39:58.023Z,1012.95
2019-01-17T07:40:38.655Z,1012.95
2019-01-17T07:41:19.259Z,1012.95
2019-01-17T07:41:59.940Z,1012.94
2019-01-17T07:42:40.664Z,1012.97
2019-01-17T07:43:21.559Z,1013
2019-01-17T07:44:02.204Z,1012.96
2019-01-17T07:44:42.838Z,1013
2019-01-17T07:45:23.519Z,1012.98
2019-01-17T07:46:04.311Z,1013.03
2019-01-17T07:46:44.901Z,1013.01
2019-01-17T07:47:25.509Z,1013.04
2019-01-17T07:48:06.147Z,1013.04
2019-01-17T07:48:46.757Z,1013.07
2019-01-17T07:49:27.360Z,1013.07
2019-01-17T07:50:07.977Z,1013.07
2019-01-17T07:50:48.589Z,1013.06
2019-01-17T07:51:29.206Z,1013.03
2019-01-17T07:52:09.840Z,1013.01
2019-01-17T07:52:50.445Z,1013.04
2019-01-17T07:53:31.055Z,1013.05
2019-01-17T07:54:11.672Z,1013.02
2019-01-17T07:54:52.282Z,1013.06
2019-01-17T07:55:32.897Z,1013.02
2019-01-17T07:56:13.533Z,1013.03
2019-01-17T07:56:54.175Z,1013.08
2019-01-17T07:57:34.782Z,1013.06
2019-01-17T07:58:15.406Z,1013.07
2019-01-17T07:58:56.002Z,1013.06
2019-01-17T07:59:36.612Z,1013.06
2019-01-17T08:00:17.310Z,1013.07
2019-01-17T08:00:58.009Z,1013.09
2019-01-17T08:01:38.688Z,1013.1
2019-01-17T08:02:19.324Z,1013.08
2019-01-17T08:02:59.936Z,1013.1
2019-01-17T08:03:40.542Z,1013.1
2019-01-17T08:04:21.164Z,1013.1
2019-01-17T08:05:01.786Z,1013.1
2019-01-17T08:05:42.464Z,1013.13
2019-01-17T08:06:23.078Z,1013.14
2019-01-17T08:07:03.668Z,1013.18
2019-01-17T08:07:44.302Z,1013.16
2019-01-17T08:08:24.912Z,1013.16
2019-01-17T08:09:05.522Z,1013.16
2019-01-17T08:09:46.230Z,1013.16
2019-01-17T08:10:26.727Z,1013.14
2019-01-17T08:11:07.340Z,1013.16
2019-01-17T08:11:47.995Z,1013.16
2019-01-17T08:12:28.605Z,1013.19
2019-01-17T08:13:09.206Z,1013.19
2019-01-17T08:13:49.809Z,1013.21
2019-01-17T08:14:30.424Z,1013.18
2019-01-17T08:15:11.036Z,1013.17